createdAt,value
2017-11-30T00:00:06.714Z,20.40
2017-11-30T00:02:34.186Z,26.80
2017-11-30T00:05:01.673Z,21.92
2017-11-30T00:07:29.177Z,24.10
2017-11-30T00:09:56.699Z,24.83
2017-11-30T00:12:24.171Z,25.37
2017-11-30T00:14:52.422Z,19.37
2017-11-30T00:17:19.923Z,18.87
2017-11-30T00:19:48.185Z,19.95
2017-11-30T00:22:16.432Z,21.35
2017-11-30T00:24:43.916Z,19.85
2017-11-30T00:27:12.219Z,18.37
2017-11-30T00:29:39.709Z,21.08
2017-11-30T00:32:07.190Z,23.12
2017-11-30T00:34:34.682Z,18.95
2017-11-30T00:37:02.948Z,16.80
2017-11-30T00:39:31.216Z,23.17
2017-11-30T00:41:58.700Z,21.55
2017-11-30T00:44:32.851Z,18.48
2017-11-30T00:47:00.335Z,21.08
2017-11-30T00:49:27.830Z,23.27
2017-11-30T00:51:56.100Z,23.25
2017-11-30T00:54:24.340Z,23.60
2017-11-30T00:56:51.844Z,20.00
2017-11-30T00:59:20.137Z,26.25
2017-11-30T01:01:47.662Z,19.12
2017-11-30T01:04:15.137Z,16.52
2017-11-30T01:06:43.411Z,20.58
2017-11-30T01:09:11.654Z,19.30
2017-11-30T01:11:39.132Z,17.10
2017-11-30T01:14:06.652Z,20.33
2017-11-30T01:16:34.129Z,21.08
2017-11-30T01:19:01.600Z,18.48
2017-11-30T01:21:29.116Z,19.62
2017-11-30T01:23:56.618Z,19.35
2017-11-30T01:26:24.157Z,19.67
2017-11-30T01:28:51.639Z,20.25
2017-11-30T01:31:19.124Z,21.62
2017-11-30T01:33:47.379Z,19.52
2017-11-30T01:36:15.651Z,19.15
2017-11-30T01:38:43.109Z,17.12
2017-11-30T01:41:10.622Z,19.17
2017-11-30T01:43:38.101Z,15.45
2017-11-30T01:46:05.569Z,18.10
2017-11-30T01:48:33.065Z,16.40
2017-11-30T01:51:01.313Z,18.70
2017-11-30T01:53:28.796Z,18.20
2017-11-30T01:55:57.077Z,20.90
2017-11-30T01:58:25.311Z,17.25
2017-11-30T02:00:53.583Z,21.23
2017-11-30T02:03:21.063Z,20.98
2017-11-30T02:05:48.573Z,18.77
2017-11-30T02:08:16.062Z,19.37
2017-11-30T02:10:43.561Z,21.95
2017-11-30T02:13:11.828Z,22.85
2017-11-30T02:15:40.107Z,21.33
2017-11-30T02:18:08.351Z,20.25
2017-11-30T02:20:35.863Z,20.98
2017-11-30T02:23:03.324Z,20.67
2017-11-30T02:25:30.825Z,24.27
2017-11-30T02:27:58.297Z,20.50
2017-11-30T02:30:25.824Z,18.67
2017-11-30T02:32:53.300Z,20.33
2017-11-30T02:35:20.775Z,25.55
2017-11-30T02:37:48.285Z,22.00
2017-11-30T02:40:15.766Z,19.62
2017-11-30T02:42:43.269Z,25.05
2017-11-30T02:45:11.546Z,20.37
2017-11-30T02:47:39.827Z,22.98
2017-11-30T02:50:08.095Z,21.17
2017-11-30T02:52:35.553Z,24.65
2017-11-30T02:55:03.816Z,24.15
2017-11-30T02:57:32.068Z,24.48
2017-11-30T02:59:59.564Z,23.75
2017-11-30T03:02:27.051Z,23.45
2017-11-30T03:04:54.540Z,27.98
2017-11-30T03:07:22.021Z,26.62
2017-11-30T03:09:49.492Z,27.15
2017-11-30T03:12:16.996Z,24.85
2017-11-30T03:14:44.509Z,29.58
2017-11-30T03:17:12.021Z,28.90
2017-11-30T03:19:39.496Z,23.15
2017-11-30T03:22:06.982Z,26.92
2017-11-30T03:24:34.485Z,26.90
2017-11-30T03:27:01.973Z,28.70
2017-11-30T03:29:29.511Z,30.05
2017-11-30T03:31:56.985Z,28.90
2017-11-30T03:34:24.498Z,28.60
2017-11-30T03:36:52.805Z,26.45
2017-11-30T03:39:20.293Z,29.25
2017-11-30T03:41:47.798Z,30.83
2017-11-30T03:44:16.033Z,30.00
2017-11-30T03:46:43.557Z,31.25
2017-11-30T03:49:11.048Z,30.23
2017-11-30T03:51:38.571Z,29.37
2017-11-30T03:54:06.059Z,31.42
2017-11-30T03:56:33.521Z,31.65
2017-11-30T03:59:01.053Z,36.42
2017-11-30T04:01:28.519Z,28.25
2017-11-30T04:03:56.025Z,29.33
2017-11-30T04:06:23.497Z,31.92
2017-11-30T04:08:51.783Z,35.90
2017-11-30T04:11:20.051Z,36.05
2017-11-30T04:13:48.356Z,37.10
2017-11-30T04:16:15.852Z,35.10
2017-11-30T04:18:43.329Z,32.65
2017-11-30T04:21:10.835Z,31.15
2017-11-30T04:23:38.316Z,31.35
2017-11-30T04:26:05.815Z,34.67
2017-11-30T04:28:34.069Z,32.15
2017-11-30T04:31:01.583Z,34.22
2017-11-30T04:33:29.059Z,39.20
2017-11-30T04:35:56.589Z,33.20
2017-11-30T04:38:24.053Z,27.08
2017-11-30T04:40:51.540Z,29.48
2017-11-30T04:43:19.044Z,25.15
2017-11-30T04:45:46.561Z,36.40
2017-11-30T04:48:14.025Z,39.13
2017-11-30T04:50:41.485Z,33.38
2017-11-30T04:53:08.981Z,28.67
2017-11-30T04:55:37.246Z,33.20
2017-11-30T04:58:04.740Z,31.25
2017-11-30T05:00:32.245Z,27.70
2017-11-30T05:02:59.745Z,25.67
2017-11-30T05:05:27.989Z,27.77
2017-11-30T05:07:55.492Z,30.30
2017-11-30T05:10:22.993Z,27.65
2017-11-30T05:12:50.456Z,28.05
2017-11-30T05:15:17.967Z,23.87
2017-11-30T05:17:45.450Z,28.83
2017-11-30T05:20:12.919Z,24.15
2017-11-30T05:22:40.436Z,30.58
2017-11-30T05:25:08.724Z,27.13
2017-11-30T05:27:36.211Z,22.83
2017-11-30T05:30:04.063Z,24.10
2017-11-30T05:32:31.570Z,22.73
2017-11-30T05:34:59.052Z,24.35
2017-11-30T05:37:27.337Z,28.85
2017-11-30T05:39:54.810Z,23.20
2017-11-30T05:42:22.331Z,22.98
2017-11-30T05:44:49.801Z,24.75
2017-11-30T05:47:18.063Z,27.25
2017-11-30T05:49:45.566Z,24.08
2017-11-30T05:52:13.084Z,26.62
2017-11-30T05:54:40.575Z,28.50
2017-11-30T05:57:08.064Z,24.85
2017-11-30T05:59:35.559Z,28.75
2017-11-30T06:02:03.075Z,27.00
2017-11-30T06:04:30.569Z,27.85
2017-11-30T06:06:58.099Z,24.67
2017-11-30T06:09:25.568Z,25.37
2017-11-30T06:11:53.072Z,28.30
2017-11-30T06:14:21.317Z,30.88
2017-11-30T06:16:48.817Z,31.37
2017-11-30T06:19:16.304Z,24.12
2017-11-30T06:21:43.788Z,25.50
2017-11-30T06:24:11.268Z,28.25
2017-11-30T06:26:39.535Z,29.37
2017-11-30T06:29:07.062Z,21.02
2017-11-30T06:31:34.553Z,22.77
2017-11-30T06:34:02.092Z,25.98
2017-11-30T06:36:29.573Z,23.35
2017-11-30T06:38:57.091Z,21.08
2017-11-30T06:41:24.556Z,24.40
2017-11-30T06:43:52.039Z,20.73
2017-11-30T06:46:19.535Z,29.65
2017-11-30T06:48:47.011Z,26.00
2017-11-30T06:51:14.523Z,30.58
2017-11-30T06:53:42.032Z,21.25
2017-11-30T06:56:09.550Z,22.30
2017-11-30T06:58:37.042Z,22.67
2017-11-30T07:01:04.521Z,20.83
2017-11-30T07:03:32.012Z,24.30
2017-11-30T07:05:59.499Z,24.55
2017-11-30T07:08:27.768Z,22.15
2017-11-30T07:10:56.003Z,21.50
2017-11-30T07:13:23.480Z,23.13
2017-11-30T07:15:51.002Z,27.65
2017-11-30T07:18:18.502Z,25.92
2017-11-30T07:20:46.042Z,30.65
2017-11-30T07:23:13.508Z,28.35
2017-11-30T07:25:41.025Z,31.27
2017-11-30T07:28:08.511Z,22.13
2017-11-30T07:30:35.987Z,19.00
2017-11-30T07:33:03.521Z,20.98
2017-11-30T07:35:31.032Z,27.87
2017-11-30T07:37:59.292Z,21.80
2017-11-30T07:40:26.776Z,19.25
2017-11-30T07:42:55.081Z,14.60
2017-11-30T07:45:22.539Z,9.85
2017-11-30T07:47:50.021Z,16.75
2017-11-30T07:50:17.534Z,5.65
2017-11-30T07:52:45.770Z,7.20
2017-11-30T07:55:13.291Z,4.95
2017-11-30T07:57:40.753Z,4.40
2017-11-30T08:00:08.216Z,6.28
2017-11-30T08:02:35.731Z,7.20
2017-11-30T08:05:03.975Z,3.00
2017-11-30T08:07:31.493Z,3.80
2017-11-30T08:09:58.962Z,5.85
2017-11-30T08:12:26.453Z,12.27
2017-11-30T08:14:53.929Z,5.93
2017-11-30T08:17:21.434Z,3.65
2017-11-30T08:19:48.920Z,4.05
2017-11-30T08:22:16.411Z,3.53
2017-11-30T08:24:43.869Z,3.17
2017-11-30T08:27:11.389Z,6.15
2017-11-30T08:29:38.882Z,5.00
2017-11-30T08:32:06.352Z,7.12
2017-11-30T08:34:34.621Z,5.37
2017-11-30T08:37:02.102Z,4.15
2017-11-30T08:39:29.575Z,6.47
2017-11-30T08:41:57.072Z,5.82
2017-11-30T08:44:24.549Z,6.22
2017-11-30T08:46:52.057Z,6.12
2017-11-30T08:49:19.521Z,6.35
2017-11-30T08:51:47.001Z,9.68
2017-11-30T08:54:14.509Z,4.70
2017-11-30T08:56:42.756Z,8.48
2017-11-30T08:59:10.265Z,6.97
2017-11-30T09:01:37.746Z,5.93
2017-11-30T09:04:05.245Z,10.63
2017-11-30T09:06:32.742Z,10.80
2017-11-30T09:09:00.223Z,6.75
2017-11-30T09:11:27.717Z,7.97
2017-11-30T09:13:55.188Z,7.78
2017-11-30T09:16:23.428Z,8.00
2017-11-30T09:18:50.921Z,8.90
2017-11-30T09:21:19.210Z,8.70
2017-11-30T09:23:47.453Z,8.73
2017-11-30T09:26:14.918Z,8.60
2017-11-30T09:28:42.408Z,9.27
2017-11-30T09:31:09.895Z,10.05
2017-11-30T09:33:37.396Z,8.48
2017-11-30T09:36:04.888Z,10.60
2017-11-30T09:38:32.357Z,10.98
2017-11-30T09:40:59.861Z,11.25
2017-11-30T09:43:27.340Z,15.85
2017-11-30T09:45:55.589Z,8.75
2017-11-30T09:48:23.080Z,10.23
2017-11-30T09:50:51.361Z,11.40
2017-11-30T09:53:19.592Z,10.38
2017-11-30T09:55:47.096Z,11.35
2017-11-30T09:58:15.357Z,9.00
2017-11-30T10:00:43.624Z,11.38
2017-11-30T10:03:11.110Z,8.15
2017-11-30T10:05:39.348Z,8.95
2017-11-30T10:08:06.845Z,12.68
2017-11-30T10:10:34.330Z,8.77
2017-11-30T10:13:01.833Z,10.30
2017-11-30T10:15:29.333Z,9.30
2017-11-30T10:17:56.822Z,7.80
2017-11-30T10:20:24.322Z,9.60
2017-11-30T10:22:51.782Z,9.15
2017-11-30T10:25:20.045Z,10.07
2017-11-30T10:27:47.524Z,10.80
2017-11-30T10:30:15.782Z,10.40
2017-11-30T10:32:43.278Z,12.15
2017-11-30T10:35:10.776Z,13.23
2017-11-30T10:37:38.255Z,10.13
2017-11-30T10:40:05.725Z,7.68
2017-11-30T10:42:33.237Z,7.95
2017-11-30T10:45:00.786Z,12.10
2017-11-30T10:47:28.277Z,10.13
2017-11-30T10:49:55.782Z,6.60
2017-11-30T10:52:23.999Z,6.30
2017-11-30T10:54:51.532Z,9.70
2017-11-30T10:57:19.041Z,7.70
2017-11-30T10:59:48.406Z,7.40
2017-11-30T11:02:15.932Z,5.53
2017-11-30T11:04:44.225Z,8.10
2017-11-30T11:07:11.711Z,6.70
2017-11-30T11:09:39.172Z,7.32
2017-11-30T11:12:06.661Z,8.90
2017-11-30T11:14:34.172Z,7.30
2017-11-30T11:17:01.674Z,7.62
2017-11-30T15:19:15.564Z,15.23
2017-11-30T15:21:43.844Z,20.20
2017-11-30T15:24:12.486Z,14.30
2017-11-30T15:26:39.950Z,16.15
2017-11-30T15:29:07.462Z,16.23
2017-11-30T15:31:35.714Z,20.90
2017-11-30T15:34:03.253Z,21.12
2017-11-30T15:36:30.722Z,15.38
2017-11-30T15:38:58.250Z,16.45
2017-11-30T15:41:25.759Z,15.52
2017-11-30T15:43:53.262Z,12.68
2017-11-30T15:46:20.718Z,14.10
2017-11-30T15:48:48.216Z,17.17
2017-11-30T15:51:15.688Z,19.12
2017-11-30T15:53:43.970Z,13.98
2017-11-30T15:56:12.240Z,21.77
2017-11-30T15:58:39.745Z,19.00
2017-11-30T16:01:07.231Z,20.12
2017-11-30T16:03:34.711Z,19.67
2017-11-30T16:06:02.198Z,21.42
2017-11-30T16:08:29.707Z,76.47
2017-11-30T16:10:57.219Z,63.15
2017-11-30T16:13:24.696Z,49.53
2017-11-30T16:15:52.204Z,31.83
2017-11-30T16:18:19.711Z,27.77
2017-11-30T16:20:47.210Z,28.20
2017-11-30T16:23:14.699Z,36.53
2017-11-30T16:25:42.968Z,32.97
2017-11-30T16:28:11.224Z,18.17
2017-11-30T16:30:38.722Z,14.07
2017-11-30T16:33:06.205Z,70.68
2017-11-30T16:35:33.720Z,115.43
2017-11-30T16:38:01.995Z,95.60
2017-11-30T16:40:30.303Z,62.78
2017-11-30T16:42:57.803Z,75.22
2017-11-30T16:45:25.292Z,67.68
2017-11-30T16:47:53.576Z,204.45
2017-11-30T16:50:21.811Z,184.48
2017-11-30T16:52:49.319Z,280.48
2017-11-30T16:55:17.600Z,221.18
2017-11-30T16:57:45.171Z,104.07
2017-11-30T17:00:12.672Z,228.68
2017-11-30T17:02:40.149Z,102.90
2017-11-30T17:05:07.720Z,121.82
2017-11-30T17:07:35.242Z,101.50
2017-11-30T17:10:02.739Z,80.10
2017-11-30T17:12:30.262Z,81.65
2017-11-30T17:14:57.782Z,74.57
2017-11-30T17:17:25.263Z,57.42
2017-11-30T17:19:52.772Z,51.75
2017-11-30T17:22:20.281Z,42.30
2017-11-30T17:24:47.783Z,39.70
2017-11-30T17:27:15.294Z,28.75
2017-11-30T17:29:42.779Z,22.13
2017-11-30T17:32:10.272Z,35.08
2017-11-30T17:34:38.586Z,53.22
2017-11-30T17:37:06.069Z,55.12
2017-11-30T17:39:33.592Z,50.53
2017-11-30T17:42:01.071Z,35.92
2017-11-30T17:44:28.596Z,23.77
2017-11-30T17:46:56.897Z,20.80
2017-11-30T17:49:24.379Z,15.13
2017-11-30T17:51:51.852Z,13.23
2017-11-30T17:54:19.374Z,17.02
2017-11-30T17:56:46.860Z,19.77
2017-11-30T17:59:14.378Z,19.65
2017-11-30T18:01:41.899Z,22.23
2017-11-30T18:04:09.453Z,23.80
2017-11-30T18:06:36.988Z,20.12
2017-11-30T18:09:04.496Z,22.95
2017-11-30T18:11:32.784Z,21.37
2017-11-30T18:14:01.037Z,20.80
2017-11-30T18:16:28.526Z,19.35
2017-11-30T18:18:57.426Z,18.75
2017-11-30T18:21:24.914Z,20.10
2017-11-30T18:23:52.479Z,17.42
2017-11-30T18:26:19.964Z,17.73
2017-11-30T18:28:47.498Z,17.40
2017-11-30T18:31:14.967Z,17.90
2017-11-30T18:33:42.527Z,20.00
2017-11-30T18:36:09.976Z,18.77
2017-11-30T18:38:37.454Z,15.15
2017-11-30T18:41:04.978Z,19.35
2017-11-30T18:43:33.244Z,15.60
2017-11-30T18:46:00.758Z,16.08
2017-11-30T18:48:28.249Z,20.80
2017-11-30T18:50:55.784Z,38.88
2017-11-30T18:53:24.056Z,44.65
2017-11-30T18:55:52.290Z,50.35
2017-11-30T18:58:19.814Z,41.53
2017-11-30T19:00:47.308Z,41.40
2017-11-30T19:03:14.813Z,28.67
2017-11-30T19:05:43.066Z,17.98
2017-11-30T19:08:10.540Z,23.55
2017-11-30T19:10:38.065Z,24.20
2017-11-30T19:13:05.552Z,16.05
2017-11-30T19:15:33.054Z,19.33
2017-11-30T19:18:00.541Z,13.05
2017-11-30T19:20:28.072Z,20.98
2017-11-30T19:22:55.549Z,25.75
2017-11-30T19:25:23.051Z,32.90
2017-11-30T19:27:50.589Z,24.37
2017-11-30T19:30:18.062Z,31.10
2017-11-30T19:32:45.557Z,27.27
2017-11-30T19:35:13.827Z,34.47
2017-11-30T19:37:42.086Z,22.80
2017-11-30T19:40:09.637Z,22.08
2017-11-30T19:42:37.108Z,22.98
2017-11-30T19:45:05.361Z,16.35
2017-11-30T19:47:32.896Z,17.52
2017-11-30T19:50:00.394Z,15.85
2017-11-30T19:52:27.953Z,16.73
2017-11-30T19:54:55.450Z,17.73
2017-11-30T19:57:22.935Z,16.80
2017-11-30T19:59:50.528Z,16.58
2017-11-30T20:02:18.024Z,18.50
2017-11-30T20:04:45.513Z,15.02
2017-11-30T20:07:13.059Z,15.90
2017-11-30T20:09:40.540Z,20.92
2017-11-30T20:12:08.488Z,16.70
2017-11-30T20:14:35.986Z,17.05
2017-11-30T20:17:03.589Z,21.17
2017-11-30T20:19:31.079Z,17.70
2017-11-30T20:21:58.559Z,16.20
2017-11-30T20:24:26.133Z,12.63
2017-11-30T20:26:53.643Z,16.73
2017-11-30T20:29:21.127Z,17.27
2017-11-30T20:31:48.720Z,13.95
2017-11-30T20:34:16.996Z,17.87
2017-11-30T20:36:44.534Z,17.60
2017-11-30T20:39:12.015Z,11.68
2017-11-30T20:41:40.370Z,15.32
2017-11-30T20:44:07.880Z,14.93
2017-11-30T20:46:35.367Z,17.20
2017-11-30T20:49:02.990Z,16.65
2017-11-30T20:51:30.464Z,15.38
2017-11-30T20:53:57.960Z,13.07
2017-11-30T20:56:25.459Z,11.90
2017-11-30T20:58:53.758Z,14.45
2017-11-30T21:01:21.695Z,16.52
2017-11-30T21:03:49.958Z,14.70
2017-11-30T21:06:17.482Z,10.68
2017-11-30T21:08:45.068Z,17.80
2017-11-30T21:11:12.643Z,33.47
2017-11-30T21:13:40.932Z,37.70
2017-11-30T21:16:09.197Z,23.10
2017-11-30T21:18:37.016Z,24.60
2017-11-30T21:21:05.232Z,18.90
2017-11-30T21:23:32.951Z,18.33
2017-11-30T21:26:00.469Z,16.35
2017-11-30T21:28:27.944Z,17.70
2017-11-30T21:30:56.277Z,17.42
2017-11-30T21:33:23.803Z,18.70
2017-11-30T21:35:51.311Z,18.05
2017-11-30T21:38:18.866Z,20.02
2017-11-30T21:40:46.392Z,26.00
2017-11-30T21:43:14.306Z,30.00
2017-11-30T21:45:41.795Z,21.37
2017-11-30T21:48:10.358Z,22.10
2017-11-30T21:50:37.827Z,18.60
2017-11-30T21:53:06.188Z,12.88
2017-11-30T21:55:34.498Z,14.20
2017-11-30T21:58:02.051Z,15.50
2017-11-30T22:00:29.520Z,16.62
2017-11-30T22:02:56.996Z,20.20
2017-11-30T22:05:24.512Z,18.98
2017-11-30T22:07:52.801Z,22.50
2017-11-30T22:10:21.128Z,39.38
2017-11-30T22:12:48.659Z,29.63
2017-11-30T22:15:16.163Z,40.50
2017-11-30T22:17:44.768Z,36.13
2017-11-30T22:20:12.317Z,23.98
2017-11-30T22:22:39.804Z,35.88
2017-11-30T22:25:07.392Z,27.00
2017-11-30T22:27:34.862Z,33.08
2017-11-30T22:30:04.760Z,36.05
2017-11-30T22:32:32.234Z,31.77
2017-11-30T22:35:00.580Z,22.83
2017-11-30T22:37:28.811Z,22.65
2017-11-30T22:39:56.369Z,17.98
2017-11-30T22:42:23.890Z,18.42
2017-11-30T22:44:51.372Z,17.10
2017-11-30T22:47:18.879Z,19.37
2017-11-30T22:49:47.151Z,21.08
2017-11-30T22:52:15.396Z,24.45
2017-11-30T22:54:42.903Z,23.95
2017-11-30T22:57:10.411Z,26.40
2017-11-30T22:59:38.015Z,23.23
2017-11-30T23:02:06.255Z,22.98
2017-11-30T23:04:33.741Z,13.35
2017-11-30T23:07:02.020Z,14.52
2017-11-30T23:09:30.289Z,13.43
2017-11-30T23:11:57.822Z,10.98
2017-11-30T23:14:25.300Z,14.75
2017-11-30T23:16:52.797Z,17.33
2017-11-30T23:19:20.310Z,15.07
2017-11-30T23:21:47.783Z,15.52
2017-11-30T23:24:15.303Z,15.25
2017-11-30T23:26:42.781Z,19.45
2017-11-30T23:29:10.293Z,19.42
2017-11-30T23:31:37.794Z,20.25
2017-11-30T23:34:05.300Z,24.73
2017-11-30T23:36:32.832Z,20.60
2017-11-30T23:39:00.315Z,17.67
2017-11-30T23:41:27.840Z,15.27
2017-11-30T23:43:55.354Z,10.75
2017-11-30T23:46:22.841Z,10.15
2017-11-30T23:48:50.375Z,7.10
2017-11-30T23:51:17.896Z,10.45
2017-11-30T23:53:46.134Z,9.65
2017-11-30T23:56:13.671Z,9.07
2017-11-30T23:58:41.143Z,12.52
